Sitges, Spain
Current Conditions -  °F | °C
As of 2:30 AM on Friday 28 Nov 2014 (Local Time) from LEBL Reporting Station
Scattered Clouds Scattered Clouds  
Wind Chill: 18°   Ceiling: Unl
Heat Index: 18°   Visibility: 5mi
Dew Point: 17°   Wind: 13mph
Humidity: 94%   Direction: 120°ESE
Pressure: 29.44"   Gusts: NA
Location:  41.24°N, 1.81°E
Report Text: LEBL 280130Z 12011KT 8000 FEW011 SCT056 18/17 Q0997 NOSIG
Loading
Personal Weather Stations






























Interactive Weather Map New forecast layout! Learn more

10-Day Weather Forecast

Advertisements
Track Severe Weather on mobile